createdAt,value
2018-09-04T00:01:12.317Z,19.50
2018-09-04T00:03:46.859Z,19.50
2018-09-04T00:06:16.023Z,19.50
2018-09-04T00:08:50.805Z,19.40
2018-09-04T00:11:22.556Z,19.40
2018-09-04T00:13:52.208Z,19.40
2018-09-04T00:16:39.565Z,19.40
2018-09-04T00:19:20.124Z,19.40
2018-09-04T00:22:05.209Z,19.50
2018-09-04T00:24:37.371Z,19.40
2018-09-04T00:27:07.409Z,19.40
2018-09-04T00:29:41.515Z,19.50
2018-09-04T00:32:10.731Z,19.40
2018-09-04T00:34:43.487Z,19.40
2018-09-04T00:37:16.032Z,19.50
2018-09-04T00:39:56.916Z,19.50
2018-09-04T00:42:28.592Z,19.40
2018-09-04T00:44:59.701Z,19.50
2018-09-04T00:47:29.132Z,19.40
2018-09-04T00:50:04.726Z,19.40
2018-09-04T00:52:33.833Z,19.40
2018-09-04T00:55:03.085Z,19.50
2018-09-04T00:57:34.497Z,19.50
2018-09-04T01:00:05.163Z,19.40
2018-09-04T01:02:46.665Z,19.40
2018-09-04T01:05:15.561Z,19.40
2018-09-04T01:07:44.588Z,19.50
2018-09-04T01:10:13.770Z,19.40
2018-09-04T01:12:43.608Z,19.40
2018-09-04T01:15:15.381Z,19.40
2018-09-04T01:17:54.017Z,19.50
2018-09-04T01:20:25.415Z,19.40
2018-09-04T01:22:53.954Z,19.40
2018-09-04T01:25:25.451Z,19.50
2018-09-04T01:27:54.395Z,19.40
2018-09-04T01:30:25.940Z,19.40
2018-09-04T01:32:54.657Z,19.40
2018-09-04T01:35:23.943Z,19.40
2018-09-04T01:37:53.420Z,19.40
2018-09-04T01:40:24.100Z,19.40
2018-09-04T01:43:04.277Z,19.40
2018-09-04T01:45:39.732Z,19.40
2018-09-04T01:48:12.589Z,19.40
2018-09-04T01:50:45.193Z,19.40
2018-09-04T01:53:13.648Z,19.40
2018-09-04T01:55:43.633Z,19.40
2018-09-04T01:58:13.193Z,19.40
2018-09-04T02:00:50.547Z,19.40
2018-09-04T02:03:22.564Z,19.40
2018-09-04T02:05:51.788Z,19.40
2018-09-04T02:08:28.398Z,19.40
2018-09-04T02:11:02.234Z,19.40
2018-09-04T02:13:32.068Z,19.40
2018-09-04T02:16:03.716Z,19.30
2018-09-04T02:18:35.734Z,19.40
2018-09-04T02:21:05.120Z,19.40
2018-09-04T02:23:33.761Z,19.40
2018-09-04T02:26:02.346Z,19.40
2018-09-04T02:28:38.036Z,19.40
2018-09-04T02:31:07.761Z,19.40
2018-09-04T02:33:37.225Z,19.40
2018-09-04T02:36:07.268Z,19.40
2018-09-04T02:38:42.209Z,19.40
2018-09-04T02:41:13.818Z,19.40
2018-09-04T02:43:42.447Z,19.40
2018-09-04T02:46:16.884Z,19.40
2018-09-04T02:48:51.358Z,19.40
2018-09-04T02:51:21.250Z,19.40
2018-09-04T02:53:50.081Z,19.40
2018-09-04T02:56:26.840Z,19.40
2018-09-04T02:58:58.667Z,19.40
2018-09-04T03:01:28.322Z,19.40
2018-09-04T03:03:57.653Z,19.40
2018-09-04T03:06:27.073Z,19.40
2018-09-04T03:08:56.044Z,19.40
2018-09-04T03:11:30.764Z,19.40
2018-09-04T03:13:59.967Z,19.40
2018-09-04T03:16:29.015Z,19.40
2018-09-04T03:18:58.895Z,19.40
2018-09-04T03:21:32.748Z,19.40
2018-09-04T03:24:05.436Z,19.40
2018-09-04T03:26:34.204Z,19.40
2018-09-04T03:29:02.912Z,19.40
2018-09-04T03:31:32.262Z,19.40
2018-09-04T03:34:00.692Z,19.40
2018-09-04T03:36:37.142Z,19.30
2018-09-04T03:39:08.257Z,19.30
2018-09-04T03:41:37.445Z,19.30
2018-09-04T03:44:13.514Z,19.30
2018-09-04T03:46:41.741Z,19.30
2018-09-04T03:49:13.500Z,19.30
2018-09-04T03:51:42.244Z,19.30
2018-09-04T03:54:13.886Z,19.30
2018-09-04T03:56:42.845Z,19.20
2018-09-04T03:59:15.252Z,19.30
2018-09-04T04:01:44.634Z,19.30
2018-09-04T04:04:14.255Z,19.30
2018-09-04T04:06:42.941Z,19.30
2018-09-04T04:09:16.910Z,19.30
2018-09-04T04:11:46.083Z,19.30
2018-09-04T04:14:20.958Z,19.30
2018-09-04T04:20:02.898Z,19.30
2018-09-04T04:22:32.926Z,19.30
2018-09-04T04:25:01.364Z,19.30
2018-09-04T04:27:30.303Z,19.30
2018-09-04T04:30:03.960Z,19.30
2018-09-04T04:32:35.466Z,19.30
2018-09-04T04:35:05.372Z,19.30
2018-09-04T04:37:33.687Z,19.30
2018-09-04T04:40:03.091Z,19.30
2018-09-04T04:42:35.164Z,19.40
2018-09-04T04:45:06.830Z,19.40
2018-09-04T04:47:40.965Z,19.40
2018-09-04T04:50:09.509Z,19.40
2018-09-04T04:52:39.597Z,19.40
2018-09-04T04:55:11.074Z,19.40
2018-09-04T04:57:39.741Z,19.40
2018-09-04T05:00:08.705Z,19.30
2018-09-04T05:02:44.648Z,19.40
2018-09-04T05:05:22.488Z,19.40
2018-09-04T05:07:51.855Z,19.40
2018-09-04T05:10:21.072Z,19.40
2018-09-04T05:12:50.472Z,19.40
2018-09-04T05:15:19.856Z,19.40
2018-09-04T05:17:51.739Z,19.40
2018-09-04T05:20:22.760Z,19.40
2018-09-04T05:22:52.431Z,19.40
2018-09-04T05:25:33.089Z,19.40
2018-09-04T05:28:01.444Z,19.50
2018-09-04T05:30:35.470Z,19.50
2018-09-04T05:33:12.273Z,19.50
2018-09-04T05:35:46.054Z,19.50
2018-09-04T05:38:18.172Z,19.50
2018-09-04T05:40:47.566Z,19.50
2018-09-04T05:43:31.520Z,19.50
2018-09-04T05:46:03.819Z,19.50
2018-09-04T05:48:40.255Z,19.60
2018-09-04T05:51:15.293Z,19.60
2018-09-04T05:53:44.099Z,19.60
2018-09-04T05:56:22.119Z,19.60
2018-09-04T05:58:51.512Z,19.60
2018-09-04T06:01:20.710Z,19.60
2018-09-04T06:03:53.003Z,19.70
2018-09-04T06:06:25.612Z,19.70
2018-09-04T06:08:55.061Z,19.70
2018-09-04T06:11:23.832Z,19.70
2018-09-04T06:13:53.390Z,19.80
2018-09-04T06:16:28.107Z,19.80
2018-09-04T06:18:58.204Z,19.80
2018-09-04T06:21:28.344Z,19.80
2018-09-04T06:24:04.895Z,19.90
2018-09-04T06:26:35.568Z,19.90
2018-09-04T06:29:05.715Z,19.90
2018-09-04T06:31:34.344Z,19.90
2018-09-04T06:34:02.849Z,20.00
2018-09-04T06:36:43.009Z,20.00
2018-09-04T06:39:12.125Z,20.10
2018-09-04T06:41:40.893Z,20.10
2018-09-04T06:44:10.159Z,20.10
2018-09-04T06:47:00.844Z,20.10
2018-09-04T06:49:30.190Z,20.20
2018-09-04T06:51:58.617Z,20.30
2018-09-04T06:54:27.681Z,20.30
2018-09-04T06:57:01.692Z,20.30
2018-09-04T06:59:33.428Z,20.40
2018-09-04T07:02:01.931Z,20.40
2018-09-04T07:04:43.479Z,20.50
2018-09-04T07:07:17.888Z,20.50
2018-09-04T07:09:52.798Z,20.60
2018-09-04T07:12:21.258Z,20.60
2018-09-04T07:14:53.589Z,20.70
2018-09-04T07:20:34.892Z,20.70
2018-09-04T07:23:04.733Z,20.80
2018-09-04T07:25:33.976Z,20.80
2018-09-04T07:28:02.689Z,20.80
2018-09-04T07:30:34.881Z,20.80
2018-09-04T07:33:04.332Z,20.90
2018-09-04T07:35:36.165Z,20.90
2018-09-04T07:38:10.487Z,21.00
2018-09-04T07:40:39.212Z,21.10
2018-09-04T07:43:13.253Z,21.10
2018-09-04T07:45:41.702Z,21.10
2018-09-04T07:48:10.640Z,21.20
2018-09-04T07:50:40.352Z,21.30
2018-09-04T07:53:14.759Z,21.30
2018-09-04T07:55:43.009Z,21.30
2018-09-04T07:58:16.049Z,21.40
2018-09-04T08:00:45.786Z,21.40
2018-09-04T08:03:19.824Z,21.50
2018-09-04T08:05:48.160Z,21.50
2018-09-04T08:16:51.120Z,23.40
2018-09-04T08:19:19.873Z,22.70
2018-09-04T08:21:48.804Z,22.40
2018-09-04T08:24:17.452Z,22.40
2018-09-04T08:26:53.774Z,22.30
2018-09-04T08:29:23.020Z,22.40
2018-09-04T08:31:59.344Z,22.40
2018-09-04T08:34:27.659Z,22.50
2018-09-04T08:36:57.380Z,22.50
2018-09-04T08:39:26.181Z,22.50
2018-09-04T08:41:54.928Z,22.50
2018-09-04T08:44:23.629Z,22.60
2018-09-04T08:46:53.387Z,22.60
2018-09-04T08:49:22.190Z,22.50
2018-09-04T08:51:58.596Z,22.60
2018-09-04T08:54:26.857Z,22.80
2018-09-04T08:56:55.800Z,22.90
2018-09-04T08:59:24.292Z,23.00
2018-09-04T09:01:53.086Z,23.20
2018-09-04T09:04:21.800Z,23.30
2018-09-04T09:06:56.095Z,23.40
2018-09-04T09:09:24.496Z,23.30
2018-09-04T09:11:53.749Z,23.60
2018-09-04T09:14:27.882Z,23.60
2018-09-04T09:16:57.036Z,23.70
2018-09-04T09:19:25.636Z,23.60
2018-09-04T09:21:59.998Z,23.70
2018-09-04T09:24:29.136Z,23.80
2018-09-04T09:26:58.907Z,23.80
2018-09-04T09:29:27.650Z,23.80
2018-09-04T09:31:59.411Z,24.00
2018-09-04T09:34:44.432Z,23.90
2018-09-04T09:37:13.024Z,24.10
2018-09-04T09:39:51.498Z,24.10
2018-09-04T09:42:22.753Z,24.30
2018-09-04T09:44:51.558Z,24.30
2018-09-04T09:47:23.290Z,24.20
2018-09-04T09:49:54.980Z,24.40
2018-09-04T09:52:25.056Z,24.50
2018-09-04T09:54:53.641Z,24.50
2018-09-04T09:57:27.840Z,24.40
2018-09-04T10:04:03.197Z,24.50
2018-09-04T10:06:32.562Z,24.60
2018-09-04T10:09:02.503Z,24.70
2018-09-04T10:11:31.234Z,24.80
2018-09-04T10:13:59.956Z,24.60
2018-09-04T10:16:28.732Z,24.60
2018-09-04T10:18:57.554Z,24.70
2018-09-04T10:21:27.393Z,24.90
2018-09-04T10:23:56.028Z,25.20
2018-09-04T10:26:25.771Z,25.20
2018-09-04T10:28:54.725Z,25.10
2018-09-04T10:31:24.363Z,25.00
2018-09-04T10:33:53.301Z,25.20
2018-09-04T10:36:22.520Z,25.10
2018-09-04T10:38:55.053Z,25.30
2018-09-04T10:41:23.183Z,25.40
2018-09-04T10:43:51.839Z,25.40
2018-09-04T10:46:20.785Z,25.40
2018-09-04T10:48:49.344Z,25.30
2018-09-04T10:51:18.159Z,25.30
2018-09-04T10:53:46.996Z,25.10
2018-09-04T10:56:15.576Z,25.10
2018-09-04T10:58:44.480Z,25.10
2018-09-04T11:01:13.030Z,25.30
2018-09-04T11:03:41.601Z,25.20
2018-09-04T11:06:10.093Z,25.20
2018-09-04T11:08:38.726Z,25.30
2018-09-04T11:11:07.837Z,25.50
2018-09-04T11:13:36.980Z,25.60
2018-09-04T11:16:05.604Z,25.90
2018-09-04T11:18:34.729Z,26.20
2018-09-04T11:21:03.377Z,26.40
2018-09-04T11:23:31.969Z,26.50
2018-09-04T11:26:00.704Z,26.50
2018-09-04T11:28:30.484Z,26.40
2018-09-04T11:30:59.465Z,26.50
2018-09-04T11:33:28.357Z,26.50
2018-09-04T11:35:56.957Z,26.50
2018-09-04T11:38:25.972Z,26.70
2018-09-04T11:40:54.736Z,26.80
2018-09-04T11:43:24.172Z,26.40
2018-09-04T11:45:53.396Z,26.30
2018-09-04T11:48:22.024Z,26.40
2018-09-04T11:50:50.747Z,26.30
2018-09-04T11:53:19.449Z,26.40
2018-09-04T11:55:48.166Z,26.40
2018-09-04T11:58:17.001Z,26.50
2018-09-04T12:00:47.181Z,26.50
2018-09-04T12:03:16.425Z,26.50
2018-09-04T12:05:45.238Z,26.20
2018-09-04T12:08:14.049Z,26.20
2018-09-04T12:10:42.753Z,26.40
2018-09-04T12:13:11.497Z,26.50
2018-09-04T12:15:44.424Z,26.50
2018-09-04T12:18:13.488Z,26.40
2018-09-04T12:20:43.689Z,26.50
2018-09-04T12:23:12.905Z,26.60
2018-09-04T12:25:42.185Z,26.70
2018-09-04T12:28:10.645Z,26.60
2018-09-04T12:30:39.274Z,26.50
2018-09-04T12:33:08.021Z,26.40
2018-09-04T12:35:36.620Z,26.40
2018-09-04T12:38:06.725Z,26.50
2018-09-04T12:40:35.064Z,26.60
2018-09-04T12:43:04.025Z,26.50
2018-09-04T12:45:37.854Z,26.50
2018-09-04T12:48:06.624Z,26.50
2018-09-04T12:50:36.404Z,26.50
2018-09-04T12:53:06.928Z,26.50
2018-09-04T12:55:35.233Z,26.60
2018-09-04T12:58:03.985Z,26.60
2018-09-04T13:00:32.686Z,26.40
2018-09-04T13:03:01.427Z,26.40
2018-09-04T13:05:30.144Z,26.40
2018-09-04T13:07:58.973Z,26.50
2018-09-04T13:10:27.903Z,26.60
2018-09-04T13:12:57.320Z,26.80
2018-09-04T13:15:26.147Z,26.90
2018-09-04T13:17:54.920Z,27.20
2018-09-04T13:20:23.525Z,27.20
2018-09-04T13:22:52.458Z,27.20
2018-09-04T13:25:21.216Z,27.30
2018-09-04T13:27:49.847Z,27.10
2018-09-04T13:30:18.597Z,27.00
2018-09-04T13:32:47.518Z,27.00
2018-09-04T13:35:16.346Z,27.10
2018-09-04T13:37:44.953Z,27.00
2018-09-04T13:40:13.781Z,26.90
2018-09-04T13:42:42.848Z,26.90
2018-09-04T13:45:11.493Z,26.90
2018-09-04T13:47:40.145Z,26.90
2018-09-04T13:50:09.112Z,27.10
2018-09-04T13:52:38.380Z,26.90
2018-09-04T13:55:07.662Z,26.80
2018-09-04T13:57:36.788Z,26.70
2018-09-04T14:00:05.436Z,26.70
2018-09-04T14:02:34.261Z,26.60
2018-09-04T14:05:02.968Z,26.50
2018-09-04T14:07:31.501Z,26.60
2018-09-04T14:10:00.441Z,26.60
2018-09-04T14:12:28.902Z,26.70
2018-09-04T14:14:57.929Z,26.60
2018-09-04T14:17:26.644Z,26.50
2018-09-04T14:19:55.365Z,26.50
2018-09-04T14:22:24.088Z,26.50
2018-09-04T14:24:52.913Z,26.50
2018-09-04T14:27:21.459Z,26.30
2018-09-04T14:29:53.965Z,26.40
2018-09-04T14:32:18.981Z,26.50
2018-09-04T14:34:47.832Z,26.50
2018-09-04T14:37:17.599Z,26.60
2018-09-04T14:39:55.586Z,26.50
2018-09-04T14:42:15.653Z,26.30
2018-09-04T14:44:44.158Z,26.10
2018-09-04T14:47:12.788Z,26.10
2018-09-04T14:49:41.360Z,26.10
2018-09-04T14:52:11.199Z,26.00
2018-09-04T14:54:39.925Z,25.90
2018-09-04T14:57:08.670Z,26.00
2018-09-04T14:59:37.285Z,25.90
2018-09-04T15:02:06.196Z,26.00
2018-09-04T15:04:34.904Z,26.00
2018-09-04T15:07:03.627Z,25.90
2018-09-04T15:09:32.380Z,26.00
2018-09-04T15:12:01.131Z,26.00
2018-09-04T15:14:30.733Z,26.00
2018-09-04T15:17:02.386Z,26.00
2018-09-04T15:19:31.192Z,25.70
2018-09-04T15:22:03.130Z,25.70
2018-09-04T15:24:32.266Z,25.80
2018-09-04T15:27:02.922Z,25.80
2018-09-04T15:29:32.800Z,25.80
2018-09-04T15:32:01.125Z,25.60
2018-09-04T15:34:29.888Z,25.60
2018-09-04T15:36:59.732Z,25.70
2018-09-04T15:39:28.438Z,25.60
2018-09-04T15:41:57.185Z,25.70
2018-09-04T15:44:26.468Z,25.60
2018-09-04T15:46:54.731Z,25.50
2018-09-04T15:49:29.189Z,25.60
2018-09-04T15:51:59.166Z,25.60
2018-09-04T15:54:30.027Z,25.50
2018-09-04T15:56:59.419Z,25.50
2018-09-04T15:59:28.097Z,25.50
2018-09-04T16:01:56.883Z,25.40
2018-09-04T16:04:25.495Z,25.40
2018-09-04T16:06:55.319Z,25.50
2018-09-04T16:09:25.121Z,25.50
2018-09-04T16:11:55.366Z,25.40
2018-09-04T16:14:25.336Z,25.40
2018-09-04T16:16:54.157Z,25.40
2018-09-04T16:19:23.218Z,25.40
2018-09-04T16:21:52.093Z,25.50
2018-09-04T16:24:20.905Z,25.50
2018-09-04T16:26:50.864Z,25.50
2018-09-04T16:29:19.392Z,25.60
2018-09-04T16:31:48.081Z,25.60
2018-09-04T16:34:17.310Z,25.60
2018-09-04T16:36:45.498Z,25.60
2018-09-04T16:39:17.459Z,25.50
2018-09-04T16:41:47.218Z,25.50
2018-09-04T16:44:15.645Z,25.40
2018-09-04T16:46:44.344Z,25.40
2018-09-04T16:49:13.281Z,25.30
2018-09-04T16:51:42.509Z,25.20
2018-09-04T16:54:11.485Z,25.10
2018-09-04T16:56:40.060Z,25.00
2018-09-04T16:59:08.893Z,24.80
2018-09-04T17:01:37.617Z,24.70
2018-09-04T17:04:09.393Z,24.60
2018-09-04T17:06:40.968Z,24.40
2018-09-04T17:09:09.691Z,24.30
2018-09-04T17:11:38.622Z,24.20
2018-09-04T17:14:07.619Z,24.00
2018-09-04T17:16:36.029Z,23.90
2018-09-04T17:19:05.380Z,23.80
2018-09-04T17:21:36.497Z,23.60
2018-09-04T17:24:06.208Z,23.50
2018-09-04T17:26:34.837Z,23.50
2018-09-04T17:29:03.624Z,23.40
2018-09-04T17:31:38.026Z,23.30
2018-09-04T17:34:08.500Z,23.30
2018-09-04T17:36:49.963Z,23.20
2018-09-04T17:39:19.644Z,23.10
2018-09-04T17:41:48.380Z,23.00
2018-09-04T17:44:20.054Z,22.90
2018-09-04T17:46:48.553Z,22.90
2018-09-04T17:49:17.481Z,22.80
2018-09-04T17:51:46.044Z,22.80
2018-09-04T17:54:14.761Z,22.70
2018-09-04T17:56:48.836Z,22.70
2018-09-04T17:59:18.425Z,22.60
2018-09-04T18:04:51.954Z,22.50
2018-09-04T18:07:21.146Z,22.40
2018-09-04T18:09:55.281Z,22.30
2018-09-04T18:15:31.368Z,22.20
2018-09-04T18:18:23.086Z,22.10
2018-09-04T18:21:02.621Z,22.00
2018-09-04T18:23:37.499Z,21.90
2018-09-04T18:26:06.843Z,21.80
2018-09-04T18:28:35.506Z,21.80
2018-09-04T18:31:05.265Z,21.80
2018-09-04T18:33:35.084Z,21.70
2018-09-04T18:36:04.277Z,21.60
2018-09-04T18:38:32.528Z,21.50
2018-09-04T18:41:01.135Z,21.50
2018-09-04T18:43:33.139Z,21.50
2018-09-04T18:46:01.792Z,21.40
2018-09-04T18:48:30.682Z,21.40
2018-09-04T18:50:59.813Z,21.40
2018-09-04T18:53:28.283Z,21.30
2018-09-04T18:55:56.902Z,21.20
2018-09-04T18:58:41.553Z,21.20
2018-09-04T19:01:23.746Z,21.10
2018-09-04T19:03:57.861Z,21.00
2018-09-04T19:06:32.564Z,21.00
2018-09-04T19:09:06.949Z,20.90
2018-09-04T19:11:47.485Z,20.90
2018-09-04T19:14:16.307Z,21.00
2018-09-04T19:16:44.700Z,20.90
2018-09-04T19:19:13.445Z,20.90
2018-09-04T19:21:43.210Z,20.80
2018-09-04T19:24:12.297Z,20.80
2018-09-04T19:26:40.773Z,20.80
2018-09-04T19:29:12.357Z,20.70
2018-09-04T19:31:41.069Z,20.70
2018-09-04T19:34:10.126Z,20.60
2018-09-04T19:36:38.592Z,20.60
2018-09-04T19:39:08.297Z,20.50
2018-09-04T19:41:37.273Z,20.50
2018-09-04T19:44:05.912Z,20.50
2018-09-04T19:46:34.437Z,20.50
2018-09-04T19:49:03.225Z,20.40
2018-09-04T19:51:31.916Z,20.40
2018-09-04T19:54:00.757Z,20.30
2018-09-04T19:56:29.494Z,20.30
2018-09-04T19:58:58.329Z,20.30
2018-09-04T20:01:27.249Z,20.20
2018-09-04T20:03:55.985Z,20.20
2018-09-04T20:06:24.844Z,20.10
2018-09-04T20:08:53.696Z,20.10
2018-09-04T20:11:22.494Z,20.10
2018-09-04T20:13:51.632Z,20.00
2018-09-04T20:16:21.110Z,20.00
2018-09-04T20:18:49.723Z,20.10
2018-09-04T20:21:18.628Z,20.00
2018-09-04T20:23:47.028Z,20.00
2018-09-04T20:26:15.881Z,20.00
2018-09-04T20:28:44.425Z,20.00
2018-09-04T20:31:13.244Z,19.90
2018-09-04T20:33:42.010Z,19.90
2018-09-04T20:36:12.157Z,19.80
2018-09-04T20:38:40.874Z,19.80
2018-09-04T20:41:09.316Z,19.70
2018-09-04T20:43:38.124Z,19.70
2018-09-04T20:46:07.417Z,19.70
2018-09-04T20:48:35.820Z,19.60
2018-09-04T20:51:04.669Z,19.60
2018-09-04T20:53:33.286Z,19.60
2018-09-04T20:56:02.188Z,19.50
2018-09-04T20:58:43.216Z,19.50
2018-09-04T21:01:23.038Z,19.50
2018-09-04T21:04:03.804Z,19.50
2018-09-04T21:06:43.430Z,19.40
2018-09-04T21:09:22.926Z,19.40
2018-09-04T21:11:51.736Z,19.40
2018-09-04T21:14:20.769Z,19.30
2018-09-04T21:16:49.395Z,19.40
2018-09-04T21:19:18.268Z,19.40
2018-09-04T21:21:46.999Z,19.40
2018-09-04T21:24:15.865Z,19.30
2018-09-04T21:26:44.772Z,19.30
2018-09-04T21:29:13.456Z,19.30
2018-09-04T21:31:42.305Z,19.20
2018-09-04T21:34:10.806Z,19.20
2018-09-04T21:36:39.476Z,19.20
2018-09-04T21:39:09.148Z,19.20
2018-09-04T21:41:38.085Z,19.10
2018-09-04T21:44:06.770Z,19.10
2018-09-04T21:46:35.529Z,19.10
2018-09-04T21:49:04.559Z,19.10
2018-09-04T21:51:32.993Z,19.10
2018-09-04T21:54:02.295Z,19.00
2018-09-04T21:56:31.004Z,19.00
2018-09-04T21:58:59.808Z,19.00
2018-09-04T22:01:28.735Z,19.00
2018-09-04T22:03:57.750Z,19.00
2018-09-04T22:06:26.822Z,19.00
2018-09-04T22:08:55.252Z,18.90
2018-09-04T22:11:24.065Z,18.90
2018-09-04T22:13:52.776Z,18.90
2018-09-04T22:16:22.908Z,18.90
2018-09-04T22:18:51.307Z,18.80
2018-09-04T22:21:20.202Z,18.80
2018-09-04T22:23:48.949Z,18.80
2018-09-04T22:26:17.928Z,18.80
2018-09-04T22:28:46.576Z,18.80
2018-09-04T22:31:15.420Z,18.80
2018-09-04T22:33:44.260Z,18.70
2018-09-04T22:36:13.062Z,18.70
2018-09-04T22:38:41.820Z,18.70
2018-09-04T22:41:10.781Z,18.70
2018-09-04T22:43:39.384Z,18.70
2018-09-04T22:46:08.368Z,18.70
2018-09-04T22:48:36.983Z,18.60
2018-09-04T22:51:11.417Z,18.60
2018-09-04T22:53:40.614Z,18.60
2018-09-04T22:56:09.643Z,18.60
2018-09-04T22:58:38.347Z,18.60
2018-09-04T23:01:06.954Z,18.60
2018-09-04T23:03:35.704Z,18.60
2018-09-04T23:06:05.449Z,18.60
2018-09-04T23:08:34.506Z,18.60
2018-09-04T23:11:03.122Z,18.60
2018-09-04T23:13:31.677Z,18.60
2018-09-04T23:16:00.576Z,18.60
2018-09-04T23:18:30.502Z,18.60
2018-09-04T23:20:59.236Z,18.60
2018-09-04T23:23:28.069Z,18.60
2018-09-04T23:25:56.738Z,18.60
2018-09-04T23:28:25.477Z,18.60
2018-09-04T23:30:54.305Z,18.70
2018-09-04T23:33:23.156Z,18.70
2018-09-04T23:35:51.825Z,18.60
2018-09-04T23:38:22.124Z,18.70
2018-09-04T23:40:52.149Z,18.70
2018-09-04T23:43:21.120Z,18.70
2018-09-04T23:45:49.955Z,18.60
2018-09-04T23:48:18.969Z,18.70
2018-09-04T23:50:47.806Z,18.70
2018-09-04T23:53:16.635Z,18.60
2018-09-04T23:55:45.320Z,18.70
2018-09-04T23:58:14.176Z,18.60
